Wtr Mill, New York
Current Conditions -  °F | °C
As of 2:53 PM on Friday 21 Nov 2014 (Local Time) from KFOK Reporting Station
Broken Clouds Broken Clouds  
Wind Chill: 27°   Ceiling: 5500
Heat Index: 37°   Visibility: 10mi
Dew Point: 11°   Wind: 20mph
Humidity: 34%   Direction: 320°NW
Pressure: 30.29"   Gusts: 30mph
Location:  40.9217°N, 72.3434°W
Report Text: KFOK 211953Z 32017G26KT 10SM BKN055 03/M12 A3029 RMK AO2 PK WND 29029/1937 SLP258 T00281117
Loading
Personal Weather Stations






























Interactive Weather Map New forecast layout! Learn more

10-Day Weather Forecast

Advertisements
Track Severe Weather on mobile